createdAt,value
2019-02-17T00:00:58.987Z,0.00
2019-02-17T00:01:58.887Z,0.00
2019-02-17T00:02:58.785Z,0.00
2019-02-17T00:03:58.699Z,0.00
2019-02-17T00:04:58.583Z,0.00
2019-02-17T00:05:58.478Z,0.00
2019-02-17T00:06:58.383Z,0.00
2019-02-17T00:07:58.278Z,0.00
2019-02-17T00:08:58.193Z,0.00
2019-02-17T00:09:58.077Z,0.00
2019-02-17T00:10:57.976Z,0.00
2019-02-17T00:11:57.876Z,0.00
2019-02-17T00:12:57.771Z,0.00
2019-02-17T00:13:57.687Z,0.00
2019-02-17T00:14:57.571Z,0.00
2019-02-17T00:15:57.474Z,0.00
2019-02-17T00:16:57.369Z,0.00
2019-02-17T00:17:57.267Z,0.00
2019-02-17T00:18:57.185Z,0.00
2019-02-17T00:19:57.070Z,0.00
2019-02-17T00:20:56.965Z,0.00
2019-02-17T00:21:56.865Z,0.00
2019-02-17T00:22:56.863Z,0.00
2019-02-17T00:23:56.662Z,0.00
2019-02-17T00:24:56.576Z,0.00
2019-02-17T00:25:56.458Z,0.00
2019-02-17T00:26:56.361Z,0.00
2019-02-17T00:27:56.256Z,0.00
2019-02-17T00:28:59.613Z,0.00
2019-02-17T00:29:56.077Z,0.00
2019-02-17T00:30:55.956Z,0.00
2019-02-17T00:31:55.853Z,0.00
2019-02-17T00:32:55.749Z,0.00
2019-02-17T00:33:55.657Z,0.00
2019-02-17T00:34:55.566Z,0.00
2019-02-17T00:35:55.452Z,0.00
2019-02-17T00:36:55.349Z,0.00
2019-02-17T00:37:55.248Z,0.00
2019-02-17T00:38:55.164Z,0.00
2019-02-17T00:39:55.064Z,0.00
2019-02-17T00:40:54.944Z,0.00
2019-02-17T00:41:54.847Z,0.00
2019-02-17T00:42:54.744Z,0.00
2019-02-17T00:43:54.743Z,0.00
2019-02-17T00:44:54.557Z,0.00
2019-02-17T00:45:54.440Z,0.00
2019-02-17T00:46:54.348Z,0.00
2019-02-17T00:47:54.241Z,0.00
2019-02-17T00:48:54.138Z,0.00
2019-02-17T00:49:54.054Z,0.00
2019-02-17T00:50:54.038Z,0.00
2019-02-17T00:51:53.840Z,0.00
2019-02-17T00:52:53.737Z,0.00
2019-02-17T00:53:53.635Z,0.00
2019-02-17T00:54:53.552Z,0.00
2019-02-17T00:55:53.433Z,0.00
2019-02-17T00:56:53.331Z,0.00
2019-02-17T00:57:53.340Z,0.00
2019-02-17T00:58:53.132Z,0.00
2019-02-17T00:59:53.050Z,0.00
2019-02-17T01:00:52.933Z,0.00
2019-02-17T01:01:52.834Z,0.00
2019-02-17T01:02:52.729Z,0.00
2019-02-17T01:03:52.635Z,0.00
2019-02-17T01:04:52.651Z,0.00
2019-02-17T01:05:52.428Z,0.00
2019-02-17T01:06:52.327Z,0.00
2019-02-17T01:07:52.232Z,0.00
2019-02-17T01:08:52.125Z,0.00
2019-02-17T01:09:52.043Z,0.00
2019-02-17T01:10:51.925Z,0.00
2019-02-17T01:11:51.994Z,0.00
2019-02-17T01:12:51.722Z,0.00
2019-02-17T01:13:51.623Z,0.00
2019-02-17T01:14:51.537Z,0.00
2019-02-17T01:15:51.425Z,0.00
2019-02-17T01:16:51.322Z,0.00
2019-02-17T01:17:51.219Z,0.00
2019-02-17T01:18:51.219Z,0.00
2019-02-17T01:19:51.043Z,0.00
2019-02-17T01:20:50.917Z,0.00
2019-02-17T01:21:50.815Z,0.00
2019-02-17T01:22:50.713Z,0.00
2019-02-17T01:23:50.618Z,0.00
2019-02-17T01:24:50.532Z,0.00
2019-02-17T01:25:50.528Z,0.00
2019-02-17T01:26:50.311Z,0.00
2019-02-17T01:27:50.210Z,0.00
2019-02-17T01:28:50.116Z,0.00
2019-02-17T01:29:50.025Z,0.00
2019-02-17T01:30:49.911Z,0.00
2019-02-17T01:31:49.809Z,0.00
2019-02-17T01:32:49.804Z,0.00
2019-02-17T01:33:49.607Z,0.00
2019-02-17T01:34:49.534Z,0.00
2019-02-17T01:35:49.403Z,0.00
2019-02-17T01:36:49.303Z,0.00
2019-02-17T01:37:49.201Z,0.00
2019-02-17T01:38:49.103Z,0.00
2019-02-17T01:39:49.118Z,0.00
2019-02-17T01:40:48.900Z,0.00
2019-02-17T01:41:48.802Z,0.00
2019-02-17T01:42:48.696Z,0.00
2019-02-17T01:43:48.595Z,0.00
2019-02-17T01:44:48.511Z,0.00
2019-02-17T01:45:48.398Z,0.00
2019-02-17T01:46:48.397Z,0.00
2019-02-17T01:47:48.194Z,0.00
2019-02-17T01:48:48.091Z,0.00
2019-02-17T01:49:48.008Z,0.00
2019-02-17T01:50:47.892Z,0.00
2019-02-17T01:51:47.798Z,0.00
2019-02-17T01:52:47.695Z,0.00
2019-02-17T01:53:47.586Z,0.00
2019-02-17T01:54:47.501Z,0.00
2019-02-17T01:55:47.385Z,0.00
2019-02-17T01:56:47.286Z,0.00
2019-02-17T01:57:47.184Z,0.00
2019-02-17T01:58:47.081Z,0.00
2019-02-17T01:59:46.999Z,0.00
2019-02-17T02:00:46.878Z,0.00
2019-02-17T02:01:46.781Z,0.00
2019-02-17T02:02:46.678Z,0.00
2019-02-17T02:03:46.581Z,0.00
2019-02-17T02:04:46.495Z,0.00
2019-02-17T02:05:46.373Z,0.00
2019-02-17T02:06:46.273Z,0.00
2019-02-17T02:07:46.175Z,0.00
2019-02-17T02:08:46.074Z,0.00
2019-02-17T02:09:45.972Z,0.00
2019-02-17T02:10:45.885Z,0.00
2019-02-17T02:11:45.767Z,0.00
2019-02-17T02:12:45.669Z,0.00
2019-02-17T02:13:45.569Z,0.00
2019-02-17T02:14:45.467Z,0.00
2019-02-17T02:15:45.379Z,0.00
2019-02-17T02:16:45.267Z,0.00
2019-02-17T02:17:45.162Z,0.00
2019-02-17T02:18:45.061Z,0.00
2019-02-17T02:19:44.962Z,0.00
2019-02-17T02:20:44.874Z,0.00
2019-02-17T02:21:44.756Z,0.00
2019-02-17T02:22:44.655Z,0.00
2019-02-17T02:23:44.553Z,0.00
2019-02-17T02:24:44.456Z,0.00
2019-02-17T02:25:44.372Z,0.00
2019-02-17T02:26:44.251Z,0.00
2019-02-17T02:27:44.151Z,0.00
2019-02-17T02:28:44.047Z,0.00
2019-02-17T02:29:43.950Z,0.00
2019-02-17T02:30:43.869Z,0.00
2019-02-17T02:31:43.745Z,0.00
2019-02-17T02:32:43.644Z,0.00
2019-02-17T02:33:43.542Z,0.00
2019-02-17T02:34:43.441Z,0.00
2019-02-17T02:35:43.359Z,0.00
2019-02-17T02:36:43.237Z,0.00
2019-02-17T02:37:43.137Z,0.00
2019-02-17T02:38:43.042Z,0.00
2019-02-17T02:39:42.942Z,0.00
2019-02-17T02:40:42.852Z,0.00
2019-02-17T02:41:42.734Z,0.00
2019-02-17T02:42:42.632Z,0.00
2019-02-17T02:43:42.532Z,0.00
2019-02-17T02:44:42.431Z,0.00
2019-02-17T02:45:42.345Z,0.00
2019-02-17T02:46:42.229Z,0.00
2019-02-17T02:47:42.127Z,0.00
2019-02-17T02:48:42.026Z,0.00
2019-02-17T02:49:41.925Z,0.00
2019-02-17T02:50:41.840Z,0.00
2019-02-17T02:51:41.727Z,0.00
2019-02-17T02:52:41.625Z,0.00
2019-02-17T02:53:41.562Z,0.00
2019-02-17T02:54:41.419Z,0.00
2019-02-17T02:55:41.335Z,0.00
2019-02-17T02:56:41.221Z,0.00
2019-02-17T02:57:41.119Z,0.00
2019-02-17T02:58:41.013Z,0.00
2019-02-17T02:59:51.768Z,0.00
2019-02-17T03:00:40.831Z,0.00
2019-02-17T03:01:40.712Z,0.00
2019-02-17T03:02:40.610Z,0.00
2019-02-17T03:03:40.507Z,0.00
2019-02-17T03:04:40.413Z,0.00
2019-02-17T03:05:40.323Z,0.00
2019-02-17T03:06:40.205Z,0.00
2019-02-17T03:07:40.104Z,0.00
2019-02-17T03:08:40.005Z,0.00
2019-02-17T03:09:40.006Z,0.00
2019-02-17T03:10:39.836Z,0.00
2019-02-17T03:11:39.695Z,0.00
2019-02-17T03:12:39.596Z,0.00
2019-02-17T03:13:39.497Z,0.00
2019-02-17T03:14:39.401Z,0.00
2019-02-17T03:15:39.310Z,0.00
2019-02-17T03:16:39.197Z,0.00
2019-02-17T03:17:39.091Z,0.00
2019-02-17T03:18:38.994Z,0.00
2019-02-17T03:19:38.898Z,0.00
2019-02-17T03:20:38.810Z,0.00
2019-02-17T03:21:38.686Z,0.00
2019-02-17T03:22:38.586Z,0.00
2019-02-17T03:23:38.583Z,0.00
2019-02-17T03:24:38.386Z,0.00
2019-02-17T03:25:38.295Z,0.00
2019-02-17T03:26:38.179Z,0.00
2019-02-17T03:27:38.079Z,0.00
2019-02-17T03:28:37.974Z,0.00
2019-02-17T03:29:37.874Z,0.00
2019-02-17T03:30:37.901Z,0.00
2019-02-17T03:31:37.691Z,0.00
2019-02-17T03:32:37.582Z,0.00
2019-02-17T03:33:37.471Z,0.00
2019-02-17T03:34:37.370Z,0.00
2019-02-17T03:35:37.287Z,0.00
2019-02-17T03:36:37.164Z,0.00
2019-02-17T03:37:37.170Z,0.00
2019-02-17T03:38:36.962Z,0.00
2019-02-17T03:39:36.863Z,0.00
2019-02-17T03:40:36.780Z,0.00
2019-02-17T03:41:36.660Z,0.00
2019-02-17T03:42:36.560Z,0.00
2019-02-17T03:43:36.455Z,0.00
2019-02-17T03:44:36.353Z,0.00
2019-02-17T03:45:36.286Z,0.00
2019-02-17T03:46:36.154Z,0.00
2019-02-17T03:47:36.051Z,0.00
2019-02-17T03:48:35.948Z,0.00
2019-02-17T03:49:35.848Z,0.00
2019-02-17T03:50:35.760Z,0.00
2019-02-17T03:51:35.650Z,0.00
2019-02-17T03:52:35.838Z,0.00
2019-02-17T03:53:35.444Z,0.00
2019-02-17T03:54:35.352Z,0.00
2019-02-17T03:55:35.241Z,0.00
2019-02-17T03:56:35.156Z,0.00
2019-02-17T03:57:35.047Z,0.00
2019-02-17T03:58:34.938Z,0.00
2019-02-17T03:59:34.938Z,0.00
2019-02-17T04:00:34.737Z,0.00
2019-02-17T04:01:34.651Z,0.00
2019-02-17T04:02:34.530Z,0.00
2019-02-17T04:03:34.430Z,0.00
2019-02-17T04:04:34.326Z,0.00
2019-02-17T04:05:34.228Z,0.00
2019-02-17T04:06:34.229Z,0.00
2019-02-17T04:07:34.023Z,0.00
2019-02-17T04:08:33.920Z,0.00
2019-02-17T04:09:33.823Z,0.00
2019-02-17T04:10:33.721Z,0.00
2019-02-17T04:11:33.649Z,0.00
2019-02-17T04:12:33.516Z,0.00
2019-02-17T04:13:33.520Z,0.00
2019-02-17T04:14:33.311Z,0.00
2019-02-17T04:15:33.219Z,0.00
2019-02-17T04:16:33.124Z,0.00
2019-02-17T04:17:33.006Z,0.00
2019-02-17T04:18:32.909Z,0.00
2019-02-17T04:19:32.804Z,0.00
2019-02-17T04:20:32.808Z,0.00
2019-02-17T04:21:33.526Z,0.00
2019-02-17T04:22:32.503Z,0.00
2019-02-17T04:23:32.397Z,0.00
2019-02-17T04:24:32.298Z,0.00
2019-02-17T04:25:32.203Z,0.00
2019-02-17T04:26:32.110Z,0.00
2019-02-17T04:27:32.103Z,0.00
2019-02-17T04:28:31.889Z,0.00
2019-02-17T04:29:31.789Z,0.00
2019-02-17T04:30:31.686Z,0.00
2019-02-17T04:31:31.600Z,0.00
2019-02-17T04:32:31.493Z,0.00
2019-02-17T04:33:31.388Z,0.00
2019-02-17T04:34:31.396Z,0.00
2019-02-17T04:35:31.179Z,0.00
2019-02-17T04:36:31.105Z,0.00
2019-02-17T04:37:30.976Z,0.00
2019-02-17T04:38:30.884Z,0.00
2019-02-17T04:39:30.772Z,0.00
2019-02-17T04:40:30.670Z,0.00
2019-02-17T04:41:30.687Z,0.00
2019-02-17T04:42:30.468Z,0.00
2019-02-17T04:43:30.372Z,0.00
2019-02-17T04:44:30.263Z,0.00
2019-02-17T04:45:30.166Z,0.00
2019-02-17T04:46:30.075Z,0.00
2019-02-17T04:47:30.064Z,0.00
2019-02-17T04:48:29.855Z,0.00
2019-02-17T04:49:29.759Z,0.00
2019-02-17T04:50:29.656Z,0.00
2019-02-17T04:51:29.566Z,0.00
2019-02-17T04:52:29.447Z,0.00
2019-02-17T04:53:29.345Z,0.00
2019-02-17T04:54:29.247Z,0.00
2019-02-17T04:55:29.145Z,0.00
2019-02-17T04:56:29.061Z,0.00
2019-02-17T04:57:28.941Z,0.00
2019-02-17T04:58:28.843Z,0.00
2019-02-17T04:59:28.737Z,0.00
2019-02-17T05:00:39.180Z,0.00
2019-02-17T05:01:28.549Z,0.00
2019-02-17T05:02:28.432Z,0.00
2019-02-17T05:03:28.335Z,0.00
2019-02-17T05:04:28.228Z,0.00
2019-02-17T05:05:28.131Z,0.00
2019-02-17T05:06:28.049Z,0.00
2019-02-17T05:07:27.931Z,0.00
2019-02-17T05:08:27.821Z,0.00
2019-02-17T05:09:27.722Z,0.00
2019-02-17T05:10:27.622Z,0.00
2019-02-17T05:11:27.538Z,0.00
2019-02-17T05:12:27.419Z,0.00
2019-02-17T05:13:27.317Z,0.00
2019-02-17T05:14:27.214Z,0.00
2019-02-17T05:15:27.115Z,0.00
2019-02-17T05:16:27.036Z,0.00
2019-02-17T05:17:26.919Z,0.00
2019-02-17T05:18:26.812Z,0.00
2019-02-17T05:19:26.706Z,0.00
2019-02-17T05:20:26.607Z,0.00
2019-02-17T05:21:26.538Z,0.00
2019-02-17T05:22:26.401Z,0.00
2019-02-17T05:23:26.300Z,0.00
2019-02-17T05:24:26.199Z,0.00
2019-02-17T05:25:26.099Z,0.00
2019-02-17T05:26:26.013Z,0.00
2019-02-17T05:27:25.895Z,0.00
2019-02-17T05:28:25.813Z,0.00
2019-02-17T05:29:25.692Z,0.00
2019-02-17T05:30:25.613Z,0.00
2019-02-17T05:31:25.506Z,0.00
2019-02-17T05:32:25.388Z,0.00
2019-02-17T05:33:25.284Z,0.00
2019-02-17T05:34:25.188Z,0.00
2019-02-17T05:35:25.088Z,0.00
2019-02-17T05:36:24.999Z,0.00
2019-02-17T05:37:24.880Z,0.00
2019-02-17T05:38:24.778Z,0.00
2019-02-17T05:39:24.685Z,0.00
2019-02-17T05:40:24.573Z,0.00
2019-02-17T05:41:24.477Z,0.00
2019-02-17T05:42:24.389Z,0.00
2019-02-17T05:43:24.273Z,4.00
2019-02-17T05:44:24.172Z,0.00
2019-02-17T05:45:24.068Z,0.00
2019-02-17T05:46:23.966Z,4.00
2019-02-17T05:47:23.888Z,4.00
2019-02-17T05:48:23.766Z,4.00
2019-02-17T05:49:23.663Z,8.00
2019-02-17T05:50:23.559Z,4.00
2019-02-17T05:51:23.458Z,8.00
2019-02-17T05:52:23.371Z,8.00
2019-02-17T05:53:23.253Z,8.00
2019-02-17T05:54:23.151Z,12.00
2019-02-17T05:55:23.050Z,16.00
2019-02-17T05:56:22.953Z,20.00
2019-02-17T05:57:22.866Z,24.00
2019-02-17T05:58:22.747Z,28.00
2019-02-17T05:59:22.645Z,36.00
2019-02-17T06:00:22.543Z,40.00
2019-02-17T06:01:22.450Z,52.00
2019-02-17T06:02:22.354Z,60.00
2019-02-17T06:03:22.239Z,72.00
2019-02-17T06:04:22.140Z,80.00
2019-02-17T06:05:22.038Z,92.00
2019-02-17T06:06:21.934Z,112.00
2019-02-17T06:07:21.851Z,128.00
2019-02-17T06:08:21.729Z,144.00
2019-02-17T06:09:21.629Z,164.00
2019-02-17T06:10:21.548Z,188.00
2019-02-17T06:11:21.529Z,208.00
2019-02-17T06:12:21.341Z,236.00
2019-02-17T06:13:21.223Z,264.00
2019-02-17T06:14:21.124Z,296.00
2019-02-17T06:15:21.026Z,324.00
2019-02-17T06:16:20.917Z,356.00
2019-02-17T06:17:20.832Z,392.00
2019-02-17T06:18:20.832Z,428.00
2019-02-17T06:19:20.614Z,468.00
2019-02-17T06:20:20.511Z,508.00
2019-02-17T06:21:20.408Z,552.00
2019-02-17T06:22:20.325Z,592.00
2019-02-17T06:23:20.210Z,636.00
2019-02-17T06:24:20.115Z,688.00
2019-02-17T06:25:20.236Z,740.00
2019-02-17T06:26:19.903Z,788.00
2019-02-17T06:27:19.819Z,840.00
2019-02-17T06:28:19.702Z,892.00
2019-02-17T06:29:19.596Z,944.00
2019-02-17T06:30:19.496Z,1000.00
2019-02-17T06:31:19.395Z,1056.00
2019-02-17T06:32:19.423Z,1104.00
2019-02-17T06:33:19.193Z,1164.00
2019-02-17T06:34:19.091Z,1216.00
2019-02-17T06:35:18.994Z,1272.00
2019-02-17T06:36:18.889Z,1324.00
2019-02-17T06:37:18.802Z,1376.00
2019-02-17T06:38:18.687Z,1432.00
2019-02-17T06:39:18.686Z,1488.00
2019-02-17T06:40:18.484Z,1544.00
2019-02-17T06:41:18.382Z,1600.00
2019-02-17T06:42:18.297Z,1656.00
2019-02-17T06:43:18.179Z,1708.00
2019-02-17T06:44:18.077Z,1764.00
2019-02-17T06:45:19.749Z,1820.00
2019-02-17T06:46:17.983Z,1876.00
2019-02-17T06:47:17.805Z,1932.00
2019-02-17T06:48:17.672Z,1992.00
2019-02-17T06:49:17.571Z,2052.00
2019-02-17T06:50:17.470Z,2108.00
2019-02-17T06:51:17.369Z,2160.00
2019-02-17T06:52:17.279Z,2212.00
2019-02-17T06:53:17.268Z,2264.00
2019-02-17T06:54:17.064Z,2316.00
2019-02-17T06:55:16.962Z,2372.00
2019-02-17T06:56:16.860Z,2420.00
2019-02-17T06:57:16.774Z,2472.00
2019-02-17T06:58:16.656Z,2528.00
2019-02-17T06:59:16.559Z,2580.00
2019-02-17T07:00:16.560Z,2636.00
2019-02-17T07:01:24.451Z,2688.00
2019-02-17T07:02:16.267Z,2748.00
2019-02-17T07:03:16.154Z,2796.00
2019-02-17T07:04:16.075Z,2848.00
2019-02-17T07:05:15.977Z,2908.00
2019-02-17T07:06:15.865Z,2980.00
2019-02-17T07:07:15.871Z,3256.00
2019-02-17T07:08:15.651Z,3360.00
2019-02-17T07:09:15.549Z,3444.00
2019-02-17T07:10:15.447Z,5560.00
2019-02-17T07:11:15.347Z,9228.00
2019-02-17T07:12:15.258Z,10364.00
2019-02-17T07:13:15.140Z,10408.00
2019-02-17T07:14:15.138Z,10172.00
2019-02-17T07:15:14.946Z,10224.00
2019-02-17T07:16:14.834Z,10520.00
2019-02-17T07:17:14.754Z,11172.00
2019-02-17T07:18:14.636Z,11592.00
2019-02-17T07:19:14.536Z,11612.00
2019-02-17T07:20:14.434Z,11564.00
2019-02-17T07:21:14.336Z,12172.00
2019-02-17T07:22:14.253Z,12024.00
2019-02-17T07:23:15.280Z,10780.00
2019-02-17T07:24:14.036Z,10584.00
2019-02-17T07:25:13.936Z,12204.00
2019-02-17T07:26:13.840Z,13556.00
2019-02-17T07:27:13.744Z,13416.00
2019-02-17T07:28:13.763Z,13176.00
2019-02-17T07:29:13.541Z,13564.00
2019-02-17T07:30:13.441Z,12528.00
2019-02-17T07:31:13.343Z,11276.00
2019-02-17T07:32:13.263Z,10984.00
2019-02-17T07:33:13.146Z,11068.00
2019-02-17T07:34:13.152Z,10704.00
2019-02-17T07:35:12.951Z,10736.00
2019-02-17T07:36:12.857Z,10848.00
2019-02-17T07:37:12.755Z,11024.00
2019-02-17T07:38:12.672Z,11204.00
2019-02-17T07:39:12.560Z,11480.00
2019-02-17T07:40:12.460Z,12180.00
2019-02-17T07:41:12.366Z,12928.00
2019-02-17T07:42:12.271Z,13912.00
2019-02-17T07:43:12.186Z,16800.00
2019-02-17T07:44:12.072Z,18208.00
2019-02-17T07:45:11.976Z,17056.00
2019-02-17T07:46:11.879Z,16768.00
2019-02-17T07:47:11.789Z,18208.00
2019-02-17T07:48:11.706Z,19328.00
2019-02-17T07:49:11.588Z,18720.00
2019-02-17T07:50:11.497Z,18016.00
2019-02-17T07:51:11.397Z,17728.00
2019-02-17T07:52:11.299Z,17952.00
2019-02-17T07:53:11.229Z,18912.00
2019-02-17T07:54:11.114Z,20384.00
2019-02-17T07:55:11.014Z,22336.00
2019-02-17T07:56:10.918Z,22976.00
2019-02-17T07:57:10.821Z,23840.00
2019-02-17T07:58:10.741Z,22816.00
2019-02-17T07:59:10.631Z,22496.00
2019-02-17T08:00:10.535Z,22688.00
2019-02-17T08:01:10.440Z,22560.00
2019-02-17T08:02:10.347Z,22496.00
2019-02-17T08:03:10.270Z,23168.00
2019-02-17T08:04:10.157Z,24256.00
2019-02-17T08:05:10.062Z,25024.00
2019-02-17T08:06:09.994Z,26272.00
2019-02-17T08:07:09.873Z,26272.00
2019-02-17T08:08:09.793Z,27264.00
2019-02-17T08:09:09.684Z,27776.00
2019-02-17T08:10:09.591Z,27264.00
2019-02-17T08:11:09.500Z,26400.00
2019-02-17T08:12:09.402Z,24960.00
2019-02-17T08:13:09.325Z,26016.00
2019-02-17T08:14:09.216Z,28448.00
2019-02-17T08:15:09.118Z,27328.00
2019-02-17T08:16:09.025Z,25728.00
2019-02-17T08:17:08.936Z,26016.00
2019-02-17T08:18:08.854Z,26528.00
2019-02-17T08:19:08.744Z,26784.00
2019-02-17T08:20:08.652Z,27616.00
2019-02-17T08:21:08.560Z,28672.00
2019-02-17T08:22:08.465Z,28864.00
2019-02-17T08:23:08.396Z,28704.00
2019-02-17T08:24:08.280Z,31328.00
2019-02-17T08:25:08.195Z,31520.00
2019-02-17T08:26:08.097Z,32160.00
2019-02-17T08:27:08.007Z,31488.00
2019-02-17T08:28:07.928Z,29216.00
2019-02-17T08:29:07.820Z,29536.00
2019-02-17T08:30:07.731Z,30944.00
2019-02-17T08:31:07.649Z,31488.00
2019-02-17T08:32:07.546Z,30528.00
2019-02-17T08:33:07.481Z,31520.00
2019-02-17T08:34:07.366Z,31872.00
2019-02-17T08:35:07.278Z,34944.00
2019-02-17T08:36:07.186Z,36640.00
2019-02-17T08:37:07.098Z,36768.00
2019-02-17T08:38:07.017Z,37024.00
2019-02-17T08:39:06.913Z,36704.00
2019-02-17T08:40:06.839Z,34720.00
2019-02-17T08:41:06.728Z,32896.00
2019-02-17T08:42:06.641Z,33120.00
2019-02-17T08:43:06.567Z,35392.00
2019-02-17T08:44:06.457Z,36352.00
2019-02-17T08:45:06.372Z,33248.00
2019-02-17T08:46:06.283Z,30848.00
2019-02-17T08:47:06.193Z,28992.00
2019-02-17T08:48:06.120Z,29184.00
2019-02-17T08:49:06.001Z,30848.00
2019-02-17T08:50:05.918Z,34144.00
2019-02-17T08:51:05.820Z,36992.00
2019-02-17T08:52:05.733Z,37792.00
2019-02-17T08:53:05.655Z,37536.00
2019-02-17T08:54:05.551Z,43360.00
2019-02-17T08:55:05.459Z,50624.00
2019-02-17T08:56:05.365Z,45664.00
2019-02-17T08:57:05.285Z,37088.00
2019-02-17T08:58:05.203Z,36032.00
2019-02-17T08:59:05.094Z,42944.00
2019-02-17T09:00:05.003Z,42016.00
2019-02-17T09:01:04.913Z,36768.00
2019-02-17T09:02:06.236Z,34784.00
2019-02-17T09:03:04.750Z,34016.00
2019-02-17T09:04:04.644Z,34016.00
2019-02-17T09:05:04.558Z,33408.00
2019-02-17T09:06:04.465Z,33312.00
2019-02-17T09:07:06.315Z,33472.00
2019-02-17T09:08:04.306Z,33920.00
2019-02-17T09:09:04.197Z,35616.00
2019-02-17T09:10:04.109Z,36256.00
2019-02-17T09:11:04.022Z,34368.00
2019-02-17T09:12:03.932Z,33536.00
2019-02-17T09:13:03.844Z,34048.00
2019-02-17T09:14:03.768Z,34848.00
2019-02-17T09:15:03.661Z,35744.00
2019-02-17T09:16:03.572Z,35648.00
2019-02-17T09:17:03.488Z,34656.00
2019-02-17T09:18:03.397Z,34496.00
2019-02-17T09:19:03.322Z,34272.00
2019-02-17T09:20:03.212Z,34656.00
2019-02-17T09:21:03.129Z,34816.00
2019-02-17T09:22:03.039Z,34432.00
2019-02-17T09:23:02.956Z,34816.00
2019-02-17T09:24:02.876Z,35360.00
2019-02-17T09:25:02.792Z,35488.00
2019-02-17T09:26:02.683Z,35488.00
2019-02-17T09:27:02.593Z,35424.00
2019-02-17T09:28:02.511Z,35520.00
2019-02-17T09:29:02.434Z,36128.00
2019-02-17T09:30:02.325Z,36384.00
2019-02-17T09:31:02.236Z,36320.00
2019-02-17T09:32:02.153Z,36320.00
2019-02-17T09:33:02.064Z,36160.00
2019-02-17T09:34:01.987Z,36192.00
2019-02-17T09:35:01.882Z,36256.00
2019-02-17T09:36:01.791Z,36480.00
2019-02-17T09:37:01.704Z,37056.00
2019-02-17T09:38:01.616Z,37280.00
2019-02-17T09:39:01.547Z,37120.00
2019-02-17T09:40:01.436Z,36896.00
2019-02-17T09:41:01.347Z,37184.00
2019-02-17T09:42:01.260Z,37248.00
2019-02-17T09:43:01.174Z,37120.00
2019-02-17T09:44:01.100Z,37600.00
2019-02-17T09:45:00.995Z,38400.00
2019-02-17T09:46:00.917Z,38880.00
2019-02-17T09:47:00.822Z,39200.00
2019-02-17T09:48:00.731Z,39168.00
2019-02-17T09:49:00.730Z,39584.00
2019-02-17T09:50:00.596Z,39808.00
2019-02-17T09:51:00.470Z,40288.00
2019-02-17T09:52:00.376Z,40352.00
2019-02-17T09:53:00.288Z,40160.00
2019-02-17T09:54:00.322Z,41088.00
2019-02-17T09:55:00.222Z,41440.00
2019-02-17T09:56:00.031Z,41216.00
2019-02-17T09:56:59.940Z,41568.00
2019-02-17T09:57:59.880Z,41824.00
2019-02-17T09:58:59.780Z,42080.00
2019-02-17T09:59:59.679Z,42496.00
2019-02-17T10:00:59.694Z,42656.00
2019-02-17T10:01:59.502Z,42816.00
2019-02-17T10:02:59.416Z,42944.00
2019-02-17T10:03:59.351Z,42592.00
2019-02-17T10:04:59.241Z,43552.00
2019-02-17T10:05:59.159Z,44864.00
2019-02-17T10:06:59.197Z,45056.00
2019-02-17T10:07:58.984Z,45568.00
2019-02-17T10:08:58.911Z,46144.00
2019-02-17T10:09:58.807Z,48128.00
2019-02-17T10:10:58.720Z,50304.00
2019-02-17T10:11:58.634Z,50528.00
2019-02-17T10:12:58.548Z,50752.00
2019-02-17T10:13:58.478Z,51008.00
2019-02-17T10:14:58.384Z,50400.00
2019-02-17T10:15:58.288Z,50560.00
2019-02-17T10:16:58.201Z,49408.00
2019-02-17T10:17:58.119Z,48736.00
2019-02-17T10:18:58.046Z,49696.00
2019-02-17T10:19:57.944Z,51328.00
2019-02-17T10:20:57.860Z,52064.00
2019-02-17T10:21:57.770Z,52736.00
2019-02-17T10:22:57.696Z,53184.00
2019-02-17T10:23:57.613Z,53472.00
2019-02-17T10:24:57.512Z,56960.00
2019-02-17T10:25:57.442Z,63200.00
2019-02-17T10:26:57.338Z,64960.00
2019-02-17T10:27:57.356Z,64000.00
2019-02-17T10:28:57.181Z,61568.00
2019-02-17T10:29:57.142Z,60896.00
2019-02-17T10:30:56.998Z,62720.00
2019-02-17T10:31:56.911Z,66944.00
2019-02-17T10:32:56.823Z,74816.00
2019-02-17T10:33:56.751Z,75392.00
2019-02-17T10:34:56.652Z,75744.00
2019-02-17T10:35:56.570Z,76928.00
2019-02-17T10:36:56.479Z,73856.00
2019-02-17T10:37:56.393Z,72320.00
2019-02-17T10:38:58.384Z,71488.00
2019-02-17T10:39:56.225Z,71424.00
2019-02-17T10:40:56.133Z,72224.00
2019-02-17T10:41:56.050Z,71168.00
2019-02-17T10:42:55.968Z,71552.00
2019-02-17T10:43:55.897Z,71104.00
2019-02-17T10:44:55.794Z,69984.00
2019-02-17T10:45:55.712Z,71168.00
2019-02-17T10:46:55.626Z,72992.00
2019-02-17T10:47:55.537Z,75072.00
2019-02-17T10:48:55.471Z,78752.00
2019-02-17T10:49:55.371Z,78528.00
2019-02-17T10:50:55.281Z,77216.00
2019-02-17T10:51:55.198Z,73216.00
2019-02-17T10:52:55.112Z,73952.00
2019-02-17T10:53:55.040Z,74368.00
2019-02-17T10:54:55.065Z,75680.00
2019-02-17T10:55:54.853Z,76832.00
2019-02-17T10:56:54.770Z,74624.00
2019-02-17T10:57:54.687Z,74016.00
2019-02-17T10:58:54.618Z,76480.00
2019-02-17T10:59:56.022Z,77696.00
2019-02-17T11:00:54.428Z,75616.00
2019-02-17T11:01:54.444Z,72192.00
2019-02-17T11:02:54.258Z,72320.00
2019-02-17T11:03:54.180Z,75648.00
2019-02-17T11:04:54.103Z,77664.00
2019-02-17T11:05:54.001Z,80096.00
2019-02-17T11:06:53.919Z,80544.00
2019-02-17T11:07:53.963Z,82144.00
2019-02-17T11:08:53.751Z,82880.00
2019-02-17T11:09:53.678Z,85472.00
2019-02-17T11:10:53.580Z,83328.00
2019-02-17T11:11:53.495Z,80896.00
2019-02-17T11:12:53.403Z,74496.00
2019-02-17T11:13:53.321Z,70048.00
2019-02-17T11:14:53.253Z,69696.00
2019-02-17T11:15:53.147Z,73056.00
2019-02-17T11:16:53.067Z,79136.00
2019-02-17T11:17:52.980Z,82176.00
2019-02-17T11:18:52.896Z,82176.00
2019-02-17T11:19:52.825Z,82944.00
2019-02-17T11:20:52.726Z,79584.00
2019-02-17T11:21:52.641Z,77056.00
2019-02-17T11:22:52.553Z,75808.00
2019-02-17T11:23:52.470Z,75328.00
2019-02-17T11:24:52.400Z,76064.00
2019-02-17T11:25:52.299Z,75616.00
2019-02-17T11:26:52.214Z,74016.00
2019-02-17T11:27:52.126Z,68608.00
2019-02-17T11:28:52.147Z,73440.00
2019-02-17T11:29:51.972Z,78720.00
2019-02-17T11:30:51.874Z,73312.00
2019-02-17T11:31:51.786Z,71488.00
2019-02-17T11:32:57.835Z,73760.00
2019-02-17T11:33:51.612Z,76800.00
2019-02-17T11:34:51.545Z,78368.00
2019-02-17T11:35:51.441Z,77216.00
2019-02-17T11:36:51.356Z,74400.00
2019-02-17T11:37:51.277Z,76288.00
2019-02-17T11:38:51.187Z,77504.00
2019-02-17T11:39:51.118Z,78976.00
2019-02-17T11:40:51.017Z,77504.00
2019-02-17T11:41:50.929Z,73856.00
2019-02-17T11:42:50.849Z,69600.00
2019-02-17T11:43:50.757Z,68576.00
2019-02-17T11:44:50.692Z,69824.00
2019-02-17T11:45:50.589Z,69568.00
2019-02-17T11:46:50.522Z,71616.00
2019-02-17T11:47:50.425Z,74528.00
2019-02-17T11:48:50.335Z,77600.00
2019-02-17T11:49:50.267Z,76704.00
2019-02-17T11:50:50.170Z,77728.00
2019-02-17T11:51:50.077Z,78016.00
2019-02-17T11:52:49.995Z,78880.00
2019-02-17T11:53:49.903Z,79072.00
2019-02-17T11:54:49.836Z,77504.00
2019-02-17T11:55:49.837Z,73760.00
2019-02-17T11:56:49.650Z,73056.00
2019-02-17T11:57:49.564Z,73824.00
2019-02-17T11:58:49.478Z,74464.00
2019-02-17T11:59:49.411Z,74304.00
2019-02-17T12:00:49.310Z,74688.00
2019-02-17T12:01:49.221Z,74112.00
2019-02-17T12:02:49.237Z,72416.00
2019-02-17T12:03:49.049Z,71424.00
2019-02-17T12:04:48.980Z,72160.00
2019-02-17T12:05:48.880Z,72864.00
2019-02-17T12:06:48.791Z,73152.00
2019-02-17T12:07:48.706Z,74112.00
2019-02-17T12:08:48.622Z,74752.00
2019-02-17T12:09:48.573Z,73024.00
2019-02-17T12:10:48.450Z,69856.00
2019-02-17T12:11:48.363Z,70240.00
2019-02-17T12:12:48.278Z,69696.00
2019-02-17T12:13:48.196Z,70752.00
2019-02-17T12:14:48.123Z,71328.00
2019-02-17T12:15:48.028Z,70336.00
2019-02-17T12:16:47.934Z,66176.00
2019-02-17T12:17:48.080Z,63744.00
2019-02-17T12:18:48.051Z,62848.00
2019-02-17T12:19:47.719Z,67808.00
2019-02-17T12:20:47.588Z,65792.00
2019-02-17T12:21:47.500Z,63392.00
2019-02-17T12:22:47.515Z,58560.00
2019-02-17T12:23:47.333Z,56448.00
2019-02-17T12:24:47.257Z,62976.00
2019-02-17T12:25:47.156Z,69088.00
2019-02-17T12:26:49.369Z,71104.00
2019-02-17T12:27:46.979Z,65280.00
2019-02-17T12:28:46.894Z,56800.00